createdAt,value
2018-05-31T00:00:10.425Z,76.99
2018-05-31T00:00:50.947Z,77.09
2018-05-31T00:01:31.476Z,77.09
2018-05-31T00:02:12.009Z,76.89
2018-05-31T00:02:52.521Z,77.37
2018-05-31T00:03:33.053Z,77.82
2018-05-31T00:04:13.580Z,77.47
2018-05-31T00:04:54.103Z,77.67
2018-05-31T00:05:34.644Z,77.82
2018-05-31T00:06:15.161Z,78.11
2018-05-31T00:06:55.706Z,77.92
2018-05-31T00:07:36.225Z,77.96
2018-05-31T00:08:16.728Z,77.96
2018-05-31T00:08:57.257Z,77.47
2018-05-31T00:09:37.759Z,77.67
2018-05-31T00:10:18.275Z,77.44
2018-05-31T00:10:58.806Z,76.7
2018-05-31T00:11:39.332Z,76.89
2018-05-31T00:12:19.857Z,76.89
2018-05-31T00:13:00.383Z,76.7
2018-05-31T00:13:40.913Z,77.28
2018-05-31T00:14:21.438Z,77.47
2018-05-31T00:15:01.965Z,76.86
2018-05-31T00:15:42.505Z,77.09
2018-05-31T00:16:23.050Z,77.57
2018-05-31T00:17:03.582Z,77.44
2018-05-31T00:17:44.120Z,77.53
2018-05-31T00:18:24.652Z,77.44
2018-05-31T00:19:05.179Z,77.37
2018-05-31T00:19:45.714Z,76.7
2018-05-31T00:20:26.233Z,76.99
2018-05-31T00:21:06.770Z,76.99
2018-05-31T00:21:47.291Z,76.89
2018-05-31T00:22:27.815Z,76.99
2018-05-31T00:23:08.312Z,76.79
2018-05-31T00:23:48.917Z,76.89
2018-05-31T00:24:29.420Z,77.09
2018-05-31T00:25:09.965Z,76.99
2018-05-31T00:25:50.487Z,76.79
2018-05-31T00:26:31.010Z,76.99
2018-05-31T00:27:11.524Z,76.79
2018-05-31T00:27:52.260Z,76.86
2018-05-31T00:28:32.747Z,76.89
2018-05-31T00:29:13.261Z,77.19
2018-05-31T00:29:53.785Z,76.79
2018-05-31T00:30:34.394Z,76.99
2018-05-31T00:31:14.918Z,77.09
2018-05-31T00:31:55.429Z,77.19
2018-05-31T00:32:35.941Z,76.89
2018-05-31T00:33:16.448Z,76.99
2018-05-31T00:33:56.952Z,76.99
2018-05-31T00:34:37.472Z,76.95
2018-05-31T00:35:18.005Z,77.57
2018-05-31T00:35:58.516Z,76.89
2018-05-31T00:36:39.034Z,77.19
2018-05-31T00:37:19.573Z,77.19
2018-05-31T00:38:00.088Z,77.09
2018-05-31T00:38:40.587Z,76.89
2018-05-31T00:39:21.108Z,76.66
2018-05-31T00:40:01.639Z,77.09
2018-05-31T00:40:42.149Z,76.89
2018-05-31T00:41:22.671Z,77.44
2018-05-31T00:42:03.185Z,77.05
2018-05-31T00:42:43.690Z,77.44
2018-05-31T00:43:24.194Z,77.44
2018-05-31T00:44:04.704Z,77.24
2018-05-31T00:44:45.221Z,77.14
2018-05-31T00:45:25.736Z,77.92
2018-05-31T00:46:06.261Z,77.73
2018-05-31T00:46:46.777Z,77.73
2018-05-31T00:47:27.311Z,77.73
2018-05-31T00:48:07.831Z,77.63
2018-05-31T00:48:48.331Z,77.73
2018-05-31T00:49:28.844Z,77.92
2018-05-31T00:50:09.352Z,77.53
2018-05-31T00:50:49.855Z,77.92
2018-05-31T00:51:30.377Z,78.21
2018-05-31T00:52:10.910Z,78.5
2018-05-31T00:52:51.406Z,78.79
2018-05-31T00:53:31.919Z,78.69
2018-05-31T00:54:12.456Z,78.79
2018-05-31T00:54:52.990Z,78.69
2018-05-31T00:55:33.512Z,79.33
2018-05-31T00:56:14.028Z,79.04
2018-05-31T00:56:54.555Z,78.94
2018-05-31T00:57:35.088Z,79.24
2018-05-31T00:58:15.612Z,79.14
2018-05-31T00:58:56.136Z,79.37
2018-05-31T00:59:36.658Z,79.27
2018-05-31T01:00:17.193Z,78.94
2018-05-31T01:00:57.710Z,79.52
2018-05-31T01:01:38.237Z,79.33
2018-05-31T01:02:18.756Z,79.24
2018-05-31T01:02:59.296Z,79.62
2018-05-31T01:03:39.811Z,79.62
2018-05-31T01:04:20.329Z,80.2
2018-05-31T01:05:00.841Z,79.82
2018-05-31T01:05:41.379Z,80.11
2018-05-31T01:06:21.881Z,79.82
2018-05-31T01:07:02.424Z,80.49
2018-05-31T01:07:42.948Z,80.2
2018-05-31T01:08:23.475Z,80.49
2018-05-31T01:09:03.992Z,80.59
2018-05-31T01:09:44.519Z,80.69
2018-05-31T01:10:25.040Z,80.49
2018-05-31T01:11:05.548Z,80.98
2018-05-31T01:11:46.057Z,80.79
2018-05-31T01:12:26.582Z,81.17
2018-05-31T01:13:07.113Z,81.81
2018-05-31T01:13:47.724Z,81.62
2018-05-31T01:14:28.235Z,82.29
2018-05-31T01:15:08.759Z,81.71
2018-05-31T01:15:49.278Z,81.71
2018-05-31T01:16:29.818Z,82.2
2018-05-31T01:17:10.335Z,81.9
2018-05-31T01:17:50.858Z,82.48
2018-05-31T01:18:31.380Z,82.78
2018-05-31T01:19:11.908Z,82.1
2018-05-31T01:19:52.442Z,82.2
2018-05-31T01:20:32.964Z,82
2018-05-31T01:21:13.469Z,82.48
2018-05-31T01:21:53.982Z,82.48
2018-05-31T01:22:34.508Z,82.48
2018-05-31T01:23:15.031Z,82.73
2018-05-31T01:23:55.565Z,83.51
2018-05-31T01:24:36.083Z,83.22
2018-05-31T01:25:16.604Z,82.87
2018-05-31T01:25:57.121Z,82.87
2018-05-31T01:26:37.651Z,82.68
2018-05-31T01:27:18.179Z,83.51
2018-05-31T01:27:58.704Z,83.03
2018-05-31T01:28:39.219Z,82.97
2018-05-31T01:29:19.761Z,83.26
2018-05-31T01:30:00.285Z,82.68
2018-05-31T01:30:40.804Z,82.87
2018-05-31T01:31:21.320Z,82.78
2018-05-31T01:32:01.869Z,83.26
2018-05-31T01:32:42.352Z,83.16
2018-05-31T01:33:22.879Z,82.73
2018-05-31T01:34:03.400Z,82.64
2018-05-31T01:34:43.926Z,82.83
2018-05-31T01:35:24.448Z,82.73
2018-05-31T01:36:04.980Z,82.97
2018-05-31T01:36:45.499Z,82.68
2018-05-31T01:37:26.024Z,82.48
2018-05-31T01:38:06.538Z,82.68
2018-05-31T01:38:47.060Z,82.48
2018-05-31T01:39:27.599Z,82.87
2018-05-31T01:40:08.122Z,82.58
2018-05-31T01:40:48.646Z,82
2018-05-31T01:41:29.161Z,82.1
2018-05-31T01:42:09.697Z,82.64
2018-05-31T01:42:50.224Z,82.58
2018-05-31T01:43:30.754Z,82
2018-05-31T01:44:11.269Z,82.2
2018-05-31T01:44:51.783Z,82.45
2018-05-31T01:45:32.307Z,82.73
2018-05-31T01:46:12.822Z,83.31
2018-05-31T01:46:53.363Z,82.35
2018-05-31T01:47:33.881Z,82.93
2018-05-31T01:48:14.382Z,82.64
2018-05-31T01:48:54.898Z,82.93
2018-05-31T01:49:35.440Z,82.83
2018-05-31T01:50:15.958Z,82.83
2018-05-31T01:50:56.475Z,83.27
2018-05-31T01:51:37.010Z,83.27
2018-05-31T01:52:17.519Z,82.69
2018-05-31T01:52:58.068Z,82.69
2018-05-31T01:53:38.575Z,82.69
2018-05-31T01:54:19.111Z,82.83
2018-05-31T01:54:59.615Z,82.73
2018-05-31T01:55:40.136Z,82.5
2018-05-31T01:56:20.665Z,83.22
2018-05-31T01:57:01.175Z,82.98
2018-05-31T01:57:41.676Z,82.6
2018-05-31T01:58:22.213Z,82.69
2018-05-31T01:59:02.736Z,82.89
2018-05-31T01:59:43.257Z,82.54
2018-05-31T02:00:23.786Z,82.83
2018-05-31T02:01:04.308Z,82.54
2018-05-31T02:01:44.837Z,82.45
2018-05-31T02:02:25.359Z,82.73
2018-05-31T02:03:05.878Z,81.87
2018-05-31T02:03:46.391Z,82.15
2018-05-31T02:04:27.002Z,82.25
2018-05-31T02:05:07.509Z,82.15
2018-05-31T02:05:48.018Z,82.06
2018-05-31T02:06:28.549Z,82.15
2018-05-31T02:07:09.089Z,82.25
2018-05-31T02:07:49.619Z,81.96
2018-05-31T02:08:30.140Z,81.87
2018-05-31T02:09:10.635Z,81.87
2018-05-31T02:09:51.143Z,81.87
2018-05-31T02:10:31.665Z,81.67
2018-05-31T02:11:12.189Z,82.06
2018-05-31T02:11:52.702Z,81.67
2018-05-31T02:12:33.217Z,82.15
2018-05-31T02:13:13.738Z,81.48
2018-05-31T02:13:54.283Z,81.87
2018-05-31T02:14:34.804Z,81.23
2018-05-31T02:15:15.325Z,81.38
2018-05-31T02:15:55.852Z,81.38
2018-05-31T02:16:36.372Z,81.48
2018-05-31T02:17:16.889Z,81.67
2018-05-31T02:17:57.404Z,81.57
2018-05-31T02:18:37.959Z,82.35
2018-05-31T02:19:18.438Z,82.06
2018-05-31T02:19:58.960Z,82.35
2018-05-31T02:20:39.474Z,81.96
2018-05-31T02:21:19.974Z,81.96
2018-05-31T02:22:00.486Z,82.06
2018-05-31T02:22:40.988Z,82.06
2018-05-31T02:23:21.493Z,82.35
2018-05-31T02:24:02.020Z,82.06
2018-05-31T02:24:42.543Z,82.54
2018-05-31T02:25:23.030Z,82.35
2018-05-31T02:26:03.532Z,81.96
2018-05-31T02:26:44.037Z,82.35
2018-05-31T02:27:24.590Z,82.35
2018-05-31T02:28:05.236Z,82.35
2018-05-31T02:28:45.734Z,82.64
2018-05-31T02:29:26.196Z,82.54
2018-05-31T02:30:06.682Z,82.4
2018-05-31T02:30:47.187Z,82.5
2018-05-31T02:31:27.717Z,82.6
2018-05-31T02:32:08.190Z,82.69
2018-05-31T02:32:48.675Z,82.69
2018-05-31T02:33:29.165Z,82.98
2018-05-31T02:34:09.669Z,83.27
2018-05-31T02:34:50.153Z,82.98
2018-05-31T02:35:30.688Z,82.98
2018-05-31T02:36:11.159Z,82.21
2018-05-31T02:36:51.627Z,83.08
2018-05-31T02:37:32.130Z,83.27
2018-05-31T02:38:12.667Z,82.89
2018-05-31T02:38:53.107Z,83.27
2018-05-31T02:39:33.583Z,83.66
2018-05-31T02:40:14.097Z,83.18
2018-05-31T02:40:54.592Z,82.89
2018-05-31T02:41:35.078Z,84.1
2018-05-31T02:42:15.596Z,83.66
2018-05-31T02:42:56.112Z,83.85
2018-05-31T02:43:36.629Z,84
2018-05-31T02:44:17.159Z,83.81
2018-05-31T02:44:57.677Z,83.47
2018-05-31T02:45:38.171Z,83.47
2018-05-31T02:46:18.684Z,83.66
2018-05-31T02:46:59.195Z,83.56
2018-05-31T02:47:39.722Z,83.47
2018-05-31T02:48:20.245Z,83.56
2018-05-31T02:49:00.760Z,83.66
2018-05-31T02:49:41.278Z,83.81
2018-05-31T02:50:21.809Z,83.37
2018-05-31T02:51:02.322Z,83.66
2018-05-31T02:51:42.843Z,83.81
2018-05-31T02:52:23.364Z,83.75
2018-05-31T02:53:03.871Z,83.95
2018-05-31T02:53:44.436Z,83.52
2018-05-31T02:54:24.908Z,83.56
2018-05-31T02:55:05.426Z,83.85
2018-05-31T02:55:45.943Z,83.66
2018-05-31T02:56:26.467Z,84.05
2018-05-31T02:57:06.980Z,83.47
2018-05-31T02:57:47.504Z,83.56
2018-05-31T02:58:28.024Z,83.75
2018-05-31T02:59:08.549Z,84.05
2018-05-31T02:59:49.054Z,83.18
2018-05-31T03:00:29.562Z,83.37
2018-05-31T03:01:10.083Z,82.6
2018-05-31T03:01:50.600Z,83.18
2018-05-31T03:02:31.127Z,82.69
2018-05-31T03:03:11.636Z,83.08
2018-05-31T03:03:52.166Z,82.69
2018-05-31T03:04:32.677Z,83.18
2018-05-31T03:05:13.181Z,82.98
2018-05-31T03:05:53.715Z,83.18
2018-05-31T03:06:34.238Z,83.08
2018-05-31T03:07:14.770Z,83.37
2018-05-31T03:07:55.273Z,83.66
2018-05-31T03:08:35.792Z,82.98
2018-05-31T03:09:16.303Z,83.18
2018-05-31T03:09:56.839Z,83.18
2018-05-31T03:10:37.372Z,83.47
2018-05-31T03:11:17.881Z,82.4
2018-05-31T03:11:58.434Z,82.31
2018-05-31T03:12:38.983Z,83.18
2018-05-31T03:13:19.459Z,83.08
2018-05-31T03:13:59.958Z,82.79
2018-05-31T03:14:40.480Z,82.89
2018-05-31T03:15:21.006Z,82.5
2018-05-31T03:16:01.515Z,82.69
2018-05-31T03:16:42.041Z,83.37
2018-05-31T03:17:22.569Z,82.98
2018-05-31T03:18:03.095Z,83.47
2018-05-31T03:18:43.641Z,83.18
2018-05-31T03:19:24.152Z,83.56
2018-05-31T03:20:04.680Z,83.56
2018-05-31T03:20:45.195Z,83.66
2018-05-31T03:21:25.709Z,83.23
2018-05-31T03:22:06.201Z,84.05
2018-05-31T03:22:46.712Z,83.47
2018-05-31T03:23:27.231Z,83.75
2018-05-31T03:24:07.762Z,83.08
2018-05-31T03:24:48.302Z,83.08
2018-05-31T03:25:28.836Z,82.69
2018-05-31T03:26:09.355Z,82.5
2018-05-31T03:26:49.836Z,82.69
2018-05-31T03:27:30.344Z,82.79
2018-05-31T03:28:10.870Z,82.69
2018-05-31T03:28:51.380Z,83.08
2018-05-31T03:29:31.891Z,83.18
2018-05-31T03:30:12.419Z,83.37
2018-05-31T03:30:52.925Z,82.98
2018-05-31T03:31:33.431Z,83.85
2018-05-31T03:32:13.948Z,83.27
2018-05-31T03:32:54.472Z,83.62
2018-05-31T03:33:35.001Z,83.81
2018-05-31T03:34:15.549Z,83.47
2018-05-31T03:34:56.016Z,83.72
2018-05-31T03:35:36.501Z,83.52
2018-05-31T03:36:17.001Z,83.52
2018-05-31T03:36:57.499Z,83.62
2018-05-31T03:37:38.004Z,84.1
2018-05-31T03:38:18.524Z,83.62
2018-05-31T03:38:59.038Z,83.95
2018-05-31T03:39:39.566Z,83.37
2018-05-31T03:40:20.083Z,83.47
2018-05-31T03:41:00.612Z,84.24
2018-05-31T03:41:41.134Z,83.47
2018-05-31T03:42:21.657Z,83.85
2018-05-31T03:43:02.176Z,83.72
2018-05-31T03:43:42.695Z,84
2018-05-31T03:44:23.226Z,83.91
2018-05-31T03:45:03.752Z,83.66
2018-05-31T03:45:44.276Z,83.47
2018-05-31T03:46:24.789Z,83.75
2018-05-31T03:47:05.318Z,82.89
2018-05-31T03:47:45.838Z,83.18
2018-05-31T03:48:26.356Z,82.69
2018-05-31T03:49:06.874Z,82.89
2018-05-31T03:49:47.383Z,82.98
2018-05-31T03:50:27.924Z,82.6
2018-05-31T03:51:08.442Z,82.6
2018-05-31T03:51:48.979Z,82.6
2018-05-31T03:52:29.504Z,82.83
2018-05-31T03:53:10.030Z,82.64
2018-05-31T03:53:50.525Z,82.06
2018-05-31T03:54:31.077Z,82.15
2018-05-31T03:55:11.605Z,81.96
2018-05-31T03:55:52.109Z,81.77
2018-05-31T03:56:32.626Z,81.96
2018-05-31T03:57:13.129Z,82.35
2018-05-31T03:57:53.649Z,82.15
2018-05-31T03:58:34.185Z,81.77
2018-05-31T03:59:14.702Z,82.35
2018-05-31T03:59:55.225Z,81.09
2018-05-31T04:00:35.754Z,81.38
2018-05-31T04:01:16.287Z,81.38
2018-05-31T04:01:56.808Z,81.77
2018-05-31T04:02:37.326Z,81.48
2018-05-31T04:03:17.826Z,81.13
2018-05-31T04:03:58.346Z,81.04
2018-05-31T04:04:38.875Z,81.13
2018-05-31T04:05:19.399Z,80.84
2018-05-31T04:05:59.927Z,81.04
2018-05-31T04:06:40.456Z,80.74
2018-05-31T04:07:20.979Z,80.74
2018-05-31T04:08:01.522Z,80.07
2018-05-31T04:08:42.032Z,80.07
2018-05-31T04:09:22.554Z,80.07
2018-05-31T04:10:03.091Z,80.36
2018-05-31T04:10:43.613Z,80.26
2018-05-31T04:11:24.131Z,80.55
2018-05-31T04:12:04.648Z,80.16
2018-05-31T04:12:45.173Z,80.07
2018-05-31T04:13:25.693Z,80.26
2018-05-31T04:14:06.246Z,80.16
2018-05-31T04:14:46.771Z,79.58
2018-05-31T04:15:27.292Z,79.87
2018-05-31T04:16:07.811Z,80.07
2018-05-31T04:16:48.338Z,79.78
2018-05-31T04:17:28.862Z,80.16
2018-05-31T04:18:09.369Z,79.97
2018-05-31T04:18:49.888Z,79.87
2018-05-31T04:19:30.393Z,80.26
2018-05-31T04:20:10.905Z,78.91
2018-05-31T04:20:51.420Z,79.29
2018-05-31T04:21:31.934Z,79.62
2018-05-31T04:22:12.430Z,79.49
2018-05-31T04:22:52.965Z,79.2
2018-05-31T04:23:33.471Z,79.49
2018-05-31T04:24:13.968Z,79.82
2018-05-31T04:24:54.487Z,79.04
2018-05-31T04:25:34.986Z,78.85
2018-05-31T04:26:15.525Z,79.33
2018-05-31T04:26:55.980Z,78.94
2018-05-31T04:27:36.480Z,78.66
2018-05-31T04:28:16.981Z,78.56
2018-05-31T04:28:57.473Z,78.56
2018-05-31T04:29:37.982Z,78.36
2018-05-31T04:30:18.515Z,79.04
2018-05-31T04:30:59.020Z,78.56
2018-05-31T04:31:39.526Z,78.36
2018-05-31T04:32:20.048Z,77.92
2018-05-31T04:33:00.588Z,77.92
2018-05-31T04:33:41.150Z,77.63
2018-05-31T04:34:21.623Z,77.24
2018-05-31T04:35:02.143Z,77.44
2018-05-31T04:35:42.663Z,77.24
2018-05-31T04:36:23.188Z,77.34
2018-05-31T04:37:03.707Z,77.53
2018-05-31T04:37:44.233Z,77.34
2018-05-31T04:38:24.715Z,77.24
2018-05-31T04:39:05.209Z,77.34
2018-05-31T04:39:45.710Z,77.34
2018-05-31T04:40:26.253Z,76.56
2018-05-31T04:41:06.748Z,76.79
2018-05-31T04:41:47.263Z,76.86
2018-05-31T04:42:27.735Z,76.95
2018-05-31T04:43:08.244Z,77.05
2018-05-31T04:43:48.775Z,76.95
2018-05-31T04:44:29.277Z,76.95
2018-05-31T04:45:09.802Z,77.05
2018-05-31T04:45:50.609Z,76.66
2018-05-31T04:46:31.123Z,77.34
2018-05-31T04:47:11.629Z,76.95
2018-05-31T04:47:52.154Z,76.95
2018-05-31T04:48:32.674Z,76.79
2018-05-31T04:49:13.206Z,76.21
2018-05-31T04:49:53.731Z,75.92
2018-05-31T04:50:34.324Z,75.73
2018-05-31T04:51:14.802Z,76.31
2018-05-31T04:51:55.328Z,75.54
2018-05-31T04:52:35.835Z,76.12
2018-05-31T04:53:16.361Z,75.73
2018-05-31T04:53:56.898Z,75.54
2018-05-31T04:54:37.404Z,75.63
2018-05-31T04:55:17.901Z,75.54
2018-05-31T04:55:58.381Z,74.99
2018-05-31T04:56:38.886Z,74.32
2018-05-31T04:57:19.404Z,74.22
2018-05-31T04:57:59.881Z,74.9
2018-05-31T04:58:40.423Z,74.51
2018-05-31T04:59:20.923Z,74.8
2018-05-31T05:00:01.646Z,74.6
2018-05-31T05:00:42.171Z,74.41
2018-05-31T05:01:22.654Z,73.73
2018-05-31T05:02:03.178Z,73.83
2018-05-31T05:02:43.649Z,74.51
2018-05-31T05:03:24.135Z,74.86
2018-05-31T05:04:04.667Z,74.7
2018-05-31T05:04:45.145Z,74.51
2018-05-31T05:05:25.633Z,74.8
2018-05-31T05:06:06.152Z,74.6
2018-05-31T05:06:46.652Z,74.22
2018-05-31T05:07:27.130Z,74.32
2018-05-31T05:08:07.627Z,74.6
2018-05-31T05:08:48.153Z,74.51
2018-05-31T05:09:28.698Z,74.9
2018-05-31T05:10:09.163Z,74.6
2018-05-31T05:10:49.695Z,74.12
2018-05-31T05:11:30.203Z,74.9
2018-05-31T05:12:10.690Z,74.7
2018-05-31T05:12:51.204Z,74.51
2018-05-31T05:13:31.744Z,74.6
2018-05-31T05:14:12.270Z,74.6
2018-05-31T05:14:52.738Z,74.7
2018-05-31T05:15:33.238Z,74.41
2018-05-31T05:16:13.750Z,73.96
2018-05-31T05:16:54.269Z,73.73
2018-05-31T05:17:34.794Z,73.83
2018-05-31T05:18:15.322Z,73.54
2018-05-31T05:18:55.842Z,74.32
2018-05-31T05:19:36.362Z,73.93
2018-05-31T05:20:16.837Z,74.02
2018-05-31T05:20:57.343Z,74.12
2018-05-31T05:21:37.826Z,74.41
2018-05-31T05:22:18.351Z,74.12
2018-05-31T05:22:58.854Z,73.73
2018-05-31T05:23:39.360Z,73.93
2018-05-31T05:24:19.907Z,73.96
2018-05-31T05:25:00.429Z,73.58
2018-05-31T05:25:40.939Z,73.67
2018-05-31T05:26:21.502Z,73.28
2018-05-31T05:27:01.982Z,73.58
2018-05-31T05:27:42.443Z,73.28
2018-05-31T05:28:22.938Z,73.58
2018-05-31T05:29:03.598Z,73.86
2018-05-31T05:29:44.113Z,73.67
2018-05-31T05:30:24.673Z,73.96
2018-05-31T05:31:05.153Z,73.93
2018-05-31T05:31:45.642Z,73.54
2018-05-31T05:32:26.188Z,73.83
2018-05-31T05:33:06.676Z,74.51
2018-05-31T05:33:47.186Z,73.83
2018-05-31T05:34:27.700Z,73.93
2018-05-31T05:35:08.209Z,74.12
2018-05-31T05:35:48.755Z,74.6
2018-05-31T05:36:29.279Z,74.6
2018-05-31T05:37:09.767Z,74.51
2018-05-31T05:37:50.245Z,74.12
2018-05-31T05:38:30.758Z,73.73
2018-05-31T05:39:11.256Z,73.83
2018-05-31T05:39:51.777Z,74.22
2018-05-31T05:40:32.325Z,74.51
2018-05-31T05:41:12.792Z,74.57
2018-05-31T05:41:53.300Z,74.38
2018-05-31T05:42:33.798Z,74.22
2018-05-31T05:43:14.309Z,74.41
2018-05-31T05:43:54.831Z,74.18
2018-05-31T05:44:35.317Z,75.15
2018-05-31T05:45:15.833Z,74.57
2018-05-31T05:45:56.313Z,75.05
2018-05-31T05:46:36.794Z,74.76
2018-05-31T05:47:17.381Z,75.19
2018-05-31T05:47:57.938Z,74.9
2018-05-31T05:48:38.418Z,74.99
2018-05-31T05:49:18.948Z,74.41
2018-05-31T05:49:59.475Z,74.12
2018-05-31T05:50:39.985Z,74.35
2018-05-31T05:51:20.538Z,73.48
2018-05-31T05:52:01.019Z,73.22
2018-05-31T05:52:41.591Z,72.16
2018-05-31T05:53:22.078Z,72.19
2018-05-31T05:54:02.620Z,71.9
2018-05-31T05:54:43.136Z,71.7
2018-05-31T05:55:23.656Z,71.06
2018-05-31T05:56:04.180Z,71.06
2018-05-31T05:56:44.794Z,70.19
2018-05-31T05:57:25.308Z,69.84
2018-05-31T05:58:05.811Z,69.15
2018-05-31T05:58:46.354Z,69.35
2018-05-31T05:59:26.848Z,69.09
2018-05-31T06:00:07.359Z,68.9
2018-05-31T06:00:47.868Z,68.51
2018-05-31T06:01:28.500Z,68.6
2018-05-31T06:02:08.988Z,68.9
2018-05-31T06:02:49.513Z,68.25
2018-05-31T06:03:30.062Z,67.86
2018-05-31T06:04:10.588Z,67.38
2018-05-31T06:04:51.083Z,67.57
2018-05-31T06:05:31.552Z,67.76
2018-05-31T06:06:12.087Z,67.86
2018-05-31T06:06:52.566Z,67.38
2018-05-31T06:07:33.104Z,67.41
2018-05-31T06:08:13.583Z,67.08
2018-05-31T06:08:54.089Z,67.41
2018-05-31T06:09:34.584Z,66.99
2018-05-31T06:10:15.731Z,67.67
2018-05-31T06:10:56.151Z,67.47
2018-05-31T06:11:36.676Z,67.7
2018-05-31T06:12:17.308Z,67.6
2018-05-31T06:12:57.744Z,67.41
2018-05-31T06:13:38.215Z,67.41
2018-05-31T06:14:18.752Z,66.53
2018-05-31T06:14:59.250Z,67.02
2018-05-31T06:15:39.751Z,66.44
2018-05-31T06:16:20.255Z,66.08
2018-05-31T06:17:00.809Z,66.08
2018-05-31T06:17:41.290Z,66.27
2018-05-31T06:18:21.811Z,66.47
2018-05-31T06:19:02.341Z,66.08
2018-05-31T06:19:42.862Z,65.88
2018-05-31T06:20:23.362Z,65.5
2018-05-31T06:21:03.889Z,65.5
2018-05-31T06:21:44.314Z,65.5
2018-05-31T06:22:24.810Z,65.88
2018-05-31T06:23:05.293Z,65.4
2018-05-31T06:23:45.882Z,65.4
2018-05-31T06:24:26.681Z,65.3
2018-05-31T06:25:07.116Z,65.11
2018-05-31T06:25:47.618Z,65.33
2018-05-31T06:26:28.137Z,65.53
2018-05-31T06:27:08.836Z,65.14
2018-05-31T06:27:49.343Z,65.43
2018-05-31T06:28:29.813Z,64.84
2018-05-31T06:29:10.358Z,64.94
2018-05-31T06:29:50.883Z,64.26
2018-05-31T06:30:31.349Z,64.75
2018-05-31T06:31:11.874Z,64.94
2018-05-31T06:31:52.396Z,65.04
2018-05-31T06:32:32.961Z,64.45
2018-05-31T06:33:13.462Z,64.36
2018-05-31T06:33:53.911Z,64.45
2018-05-31T06:34:34.429Z,64.36
2018-05-31T06:35:14.933Z,64.45
2018-05-31T06:35:55.415Z,64.55
2018-05-31T06:36:35.907Z,65.14
2018-05-31T06:37:16.439Z,64.75
2018-05-31T06:37:56.905Z,65.04
2018-05-31T06:38:37.452Z,64.75
2018-05-31T06:39:17.938Z,64.84
2018-05-31T06:39:58.455Z,64.91
2018-05-31T06:40:39.000Z,65.33
2018-05-31T06:41:19.516Z,65.2
2018-05-31T06:42:00.018Z,65.14
2018-05-31T06:42:40.523Z,64.45
2018-05-31T06:43:21.055Z,63.87
2018-05-31T06:44:01.588Z,64.17
2018-05-31T06:44:42.124Z,64.07
2018-05-31T06:45:22.658Z,63.97
2018-05-31T06:46:03.161Z,63.68
2018-05-31T06:46:43.677Z,63.68
2018-05-31T06:47:24.210Z,63.87
2018-05-31T06:48:04.669Z,64.17
2018-05-31T06:48:45.169Z,63.87
2018-05-31T06:49:25.677Z,63.78
2018-05-31T06:50:06.200Z,63.97
2018-05-31T06:50:46.665Z,63.68
2018-05-31T06:51:27.175Z,63.87
2018-05-31T06:52:08.040Z,63.78
2018-05-31T06:52:48.538Z,63.87
2018-05-31T06:53:29.067Z,63.78
2018-05-31T06:54:09.575Z,63.48
2018-05-31T06:54:50.074Z,63.19
2018-05-31T06:55:30.573Z,63.39
2018-05-31T06:56:11.087Z,63.87
2018-05-31T06:56:51.600Z,63.39
2018-05-31T06:57:32.503Z,63.61
2018-05-31T06:58:12.869Z,62.7
2018-05-31T06:58:53.345Z,63.12
2018-05-31T06:59:33.863Z,62.63
2018-05-31T07:00:14.385Z,62.6
2018-05-31T07:00:54.963Z,63.29
2018-05-31T07:01:35.378Z,63.87
2018-05-31T07:02:15.898Z,62.8
2018-05-31T07:02:56.467Z,63.78
2018-05-31T07:03:36.918Z,63.39
2018-05-31T07:04:17.436Z,63.55
2018-05-31T07:04:57.928Z,63.78
2018-05-31T07:05:38.435Z,63.58
2018-05-31T07:06:19.012Z,63.39
2018-05-31T07:06:59.472Z,63.58
2018-05-31T07:07:39.985Z,63.39
2018-05-31T07:08:20.505Z,63.48
2018-05-31T07:09:01.032Z,63.29
2018-05-31T07:09:41.566Z,63.48
2018-05-31T07:10:22.087Z,63.29
2018-05-31T07:11:02.625Z,63.97
2018-05-31T07:11:43.097Z,63.39
2018-05-31T07:12:23.595Z,63.19
2018-05-31T07:13:04.101Z,62.63
2018-05-31T07:13:44.643Z,63.02
2018-05-31T07:14:25.175Z,62.63
2018-05-31T07:15:05.697Z,62.8
2018-05-31T07:15:46.220Z,63.09
2018-05-31T07:16:26.796Z,62.73
2018-05-31T07:17:07.498Z,62.44
2018-05-31T07:17:47.828Z,62.63
2018-05-31T07:18:28.540Z,62.25
2018-05-31T07:19:09.058Z,62.15
2018-05-31T07:19:49.565Z,62.44
2018-05-31T07:20:30.095Z,62.25
2018-05-31T07:21:10.642Z,62.35
2018-05-31T07:21:51.141Z,62.54
2018-05-31T07:22:31.651Z,61.99
2018-05-31T07:23:12.131Z,61.96
2018-05-31T07:23:52.646Z,61.89
2018-05-31T07:24:33.172Z,62.25
2018-05-31T07:25:13.683Z,61.96
2018-05-31T07:25:54.360Z,61.89
2018-05-31T07:26:34.826Z,61.96
2018-05-31T07:27:15.384Z,61.89
2018-05-31T07:27:55.860Z,61.6
2018-05-31T07:28:36.406Z,61.69
2018-05-31T07:29:16.965Z,61.96
2018-05-31T07:29:57.542Z,61.66
2018-05-31T07:30:38.059Z,62.08
2018-05-31T07:31:18.596Z,61.86
2018-05-31T07:31:59.136Z,61.69
2018-05-31T07:32:39.641Z,61.21
2018-05-31T07:33:20.187Z,61.6
2018-05-31T07:34:00.717Z,61.89
2018-05-31T07:34:41.631Z,61.76
2018-05-31T07:35:22.155Z,61.99
2018-05-31T07:36:02.711Z,61.3
2018-05-31T07:36:43.241Z,61.21
2018-05-31T07:37:23.742Z,60.62
2018-05-31T07:38:04.256Z,60.42
2018-05-31T07:38:44.754Z,61.21
2018-05-31T07:39:25.314Z,61.11
2018-05-31T07:40:05.772Z,61.5
2018-05-31T07:40:46.331Z,61.11
2018-05-31T07:41:26.964Z,61.69
2018-05-31T07:42:07.486Z,61.69
2018-05-31T07:42:48.130Z,62.08
2018-05-31T07:43:28.644Z,62.18
2018-05-31T07:44:09.138Z,61.89
2018-05-31T07:44:49.657Z,61.79
2018-05-31T07:45:30.177Z,62.54
2018-05-31T07:46:10.752Z,62.25
2018-05-31T07:46:51.392Z,62.25
2018-05-31T07:47:31.781Z,62.63
2018-05-31T07:48:12.285Z,63.02
2018-05-31T07:48:52.805Z,63.12
2018-05-31T07:49:33.489Z,62.76
2018-05-31T07:50:13.871Z,62.73
2018-05-31T07:50:54.389Z,62.63
2018-05-31T07:51:34.917Z,62.54
2018-05-31T07:52:15.416Z,62.35
2018-05-31T07:52:55.940Z,62.08
2018-05-31T07:53:36.492Z,62.18
2018-05-31T07:54:16.972Z,62.28
2018-05-31T07:54:57.484Z,61.99
2018-05-31T07:55:37.996Z,62.18
2018-05-31T07:56:18.544Z,62.57
2018-05-31T07:56:59.048Z,62.96
2018-05-31T07:57:39.594Z,62.63
2018-05-31T07:58:20.137Z,62.47
2018-05-31T07:59:00.704Z,62.35
2018-05-31T07:59:41.168Z,62.63
2018-05-31T08:00:21.666Z,62.73
2018-05-31T08:01:02.202Z,62.73
2018-05-31T08:01:42.743Z,62.63
2018-05-31T08:02:23.249Z,62.63
2018-05-31T08:03:03.770Z,62.73
2018-05-31T08:03:44.301Z,62.63
2018-05-31T08:04:24.832Z,62.6
2018-05-31T08:05:05.355Z,62.99
2018-05-31T08:05:45.903Z,62.63
2018-05-31T08:06:26.458Z,62.54
2018-05-31T08:07:06.932Z,62.35
2018-05-31T08:07:47.455Z,62.38
2018-05-31T08:08:28.035Z,62.35
2018-05-31T08:09:08.554Z,61.86
2018-05-31T08:09:49.088Z,62.05
2018-05-31T08:10:29.617Z,62.05
2018-05-31T08:11:10.186Z,61.86
2018-05-31T08:11:50.720Z,61.27
2018-05-31T08:12:31.239Z,61.96
2018-05-31T08:13:11.906Z,61.86
2018-05-31T08:13:52.453Z,61.66
2018-05-31T08:14:32.954Z,61.73
2018-05-31T08:15:13.496Z,62.41
2018-05-31T08:15:54.101Z,62.7
2018-05-31T08:16:34.625Z,62.99
2018-05-31T08:17:15.248Z,63.29
2018-05-31T08:17:55.789Z,63.19
2018-05-31T08:18:36.322Z,63.29
2018-05-31T08:19:16.825Z,63.19
2018-05-31T08:19:57.365Z,63.16
2018-05-31T08:20:37.949Z,63.16
2018-05-31T08:21:18.435Z,63.55
2018-05-31T08:21:58.957Z,63.45
2018-05-31T08:22:39.550Z,64
2018-05-31T08:23:20.023Z,63.9
2018-05-31T08:24:00.574Z,64
2018-05-31T08:24:41.090Z,64
2018-05-31T08:25:21.607Z,63.71
2018-05-31T08:26:02.132Z,64.1
2018-05-31T08:26:42.674Z,63.9
2018-05-31T08:27:23.220Z,64.23
2018-05-31T08:28:03.829Z,65.01
2018-05-31T08:28:44.333Z,64.81
2018-05-31T08:29:24.786Z,64.62
2018-05-31T08:30:05.305Z,65.01
2018-05-31T08:30:45.863Z,64.62
2018-05-31T08:31:26.452Z,64.23
2018-05-31T08:32:06.916Z,64.23
2018-05-31T08:32:47.446Z,63.94
2018-05-31T08:33:27.976Z,63.75
2018-05-31T08:34:08.518Z,63.94
2018-05-31T08:34:49.042Z,63.84
2018-05-31T08:35:29.558Z,64.32
2018-05-31T08:36:10.086Z,63.94
2018-05-31T08:36:50.596Z,63.81
2018-05-31T08:37:31.128Z,63.71
2018-05-31T08:38:11.634Z,64.29
2018-05-31T08:38:52.191Z,64.49
2018-05-31T08:39:32.737Z,64.49
2018-05-31T08:40:13.222Z,64.2
2018-05-31T08:40:53.742Z,64.2
2018-05-31T08:41:34.261Z,64.59
2018-05-31T08:42:14.786Z,64.2
2018-05-31T08:42:55.346Z,64.1
2018-05-31T08:43:35.853Z,64
2018-05-31T08:44:16.377Z,63.9